createdAt,value
2017-09-04T00:00:59.089Z,966.18
2017-09-04T00:01:59.083Z,966.19
2017-09-04T00:02:59.076Z,966.15
2017-09-04T00:03:59.072Z,966.19
2017-09-04T00:04:59.066Z,966.15
2017-09-04T00:05:59.060Z,966.17
2017-09-04T00:06:59.059Z,966.12
2017-09-04T00:07:59.049Z,966.14
2017-09-04T00:08:59.043Z,966.12
2017-09-04T00:09:59.036Z,966.12
2017-09-04T00:10:59.032Z,966.11
2017-09-04T00:11:59.026Z,966.17
2017-09-04T00:12:59.020Z,966.18
2017-09-04T00:13:59.013Z,966.19
2017-09-04T00:14:59.008Z,966.22
2017-09-04T00:15:59.004Z,966.19
2017-09-04T00:16:58.998Z,966.24
2017-09-04T00:17:58.991Z,966.21
2017-09-04T00:18:58.985Z,966.2
2017-09-04T00:19:58.980Z,966.19
2017-09-04T00:20:58.973Z,966.2
2017-09-04T00:21:58.968Z,966.19
2017-09-04T00:22:58.963Z,966.17
2017-09-04T00:23:58.957Z,966.17
2017-09-04T00:24:58.952Z,966.22
2017-09-04T00:25:58.947Z,966.22
2017-09-04T00:26:58.941Z,966.21
2017-09-04T00:27:58.935Z,966.15
2017-09-04T00:28:58.928Z,966.2
2017-09-04T00:29:58.923Z,966.18
2017-09-04T00:30:58.917Z,966.14
2017-09-04T00:31:58.912Z,966.2
2017-09-04T00:32:58.905Z,966.2
2017-09-04T00:33:58.900Z,966.19
2017-09-04T00:34:58.994Z,966.2
2017-09-04T00:35:58.888Z,966.21
2017-09-04T00:36:58.883Z,966.22
2017-09-04T00:37:58.878Z,966.22
2017-09-04T00:38:58.872Z,966.23
2017-09-04T00:39:58.866Z,966.23
2017-09-04T00:40:58.860Z,966.23
2017-09-04T00:41:58.855Z,966.24
2017-09-04T00:42:58.849Z,966.22
2017-09-04T00:43:58.844Z,966.27
2017-09-04T00:44:58.938Z,966.25
2017-09-04T00:45:58.830Z,966.23
2017-09-04T00:46:58.826Z,966.17
2017-09-04T00:47:58.820Z,966.22
2017-09-04T00:48:58.915Z,966.22
2017-09-04T00:49:58.808Z,966.21
2017-09-04T00:50:58.803Z,966.22
2017-09-04T00:51:58.796Z,966.18
2017-09-04T00:52:58.791Z,966.21
2017-09-04T00:53:58.785Z,966.18
2017-09-04T00:54:58.779Z,966.18
2017-09-04T00:55:58.774Z,966.22
2017-09-04T00:56:58.768Z,966.19
2017-09-04T00:57:58.762Z,966.22
2017-09-04T00:58:58.757Z,966.2
2017-09-04T00:59:58.751Z,966.23
2017-09-04T01:00:58.745Z,966.2
2017-09-04T01:01:58.739Z,966.22
2017-09-04T01:02:58.733Z,966.17
2017-09-04T01:03:58.827Z,966.16
2017-09-04T01:04:58.721Z,966.17
2017-09-04T01:05:58.716Z,966.17
2017-09-04T01:06:58.711Z,966.19
2017-09-04T01:07:58.703Z,966.2
2017-09-04T01:08:58.698Z,966.16
2017-09-04T01:09:58.693Z,966.15
2017-09-04T01:10:58.686Z,966.21
2017-09-04T01:11:58.680Z,966.13
2017-09-04T01:12:58.675Z,966.14
2017-09-04T01:13:58.670Z,966.17
2017-09-04T01:14:58.664Z,966.18
2017-09-04T01:15:58.658Z,966.15
2017-09-04T01:16:58.650Z,966.16
2017-09-04T01:17:58.646Z,966.22
2017-09-04T01:18:58.640Z,966.23
2017-09-04T01:19:58.634Z,966.2
2017-09-04T01:20:58.629Z,966.2
2017-09-04T01:21:58.623Z,966.23
2017-09-04T01:22:58.617Z,966.23
2017-09-04T01:23:58.611Z,966.28
2017-09-04T01:24:58.605Z,966.24
2017-09-04T01:25:58.601Z,966.27
2017-09-04T01:26:58.594Z,966.29
2017-09-04T01:27:58.588Z,966.24
2017-09-04T01:28:58.584Z,966.24
2017-09-04T01:29:58.578Z,966.23
2017-09-04T01:30:58.671Z,966.21
2017-09-04T01:31:58.564Z,966.22
2017-09-04T01:32:58.560Z,966.21
2017-09-04T01:33:58.553Z,966.18
2017-09-04T01:34:58.549Z,966.16
2017-09-04T01:35:58.541Z,966.21
2017-09-04T01:36:58.536Z,966.23
2017-09-04T01:37:58.530Z,966.24
2017-09-04T01:38:58.524Z,966.19
2017-09-04T01:39:58.520Z,966.15
2017-09-04T01:40:58.513Z,966.17
2017-09-04T01:41:58.506Z,966.17
2017-09-04T01:42:58.501Z,966.17
2017-09-04T01:43:58.496Z,966.16
2017-09-04T01:44:58.490Z,966.15
2017-09-04T01:45:58.583Z,966.15
2017-09-04T01:46:58.479Z,966.18
2017-09-04T01:47:58.471Z,966.16
2017-09-04T01:48:58.467Z,966.21
2017-09-04T01:49:58.461Z,966.19
2017-09-04T01:50:58.454Z,966.17
2017-09-04T01:51:58.449Z,966.22
2017-09-04T01:52:58.444Z,966.17
2017-09-04T01:53:58.436Z,966.18
2017-09-04T01:54:58.431Z,966.19
2017-09-04T01:55:58.423Z,966.16
2017-09-04T01:56:58.419Z,966.19
2017-09-04T01:57:58.512Z,966.2
2017-09-04T01:58:58.407Z,966.2
2017-09-04T01:59:58.400Z,966.2
2017-09-04T02:00:58.395Z,966.18
2017-09-04T02:01:58.390Z,966.19
2017-09-04T02:02:58.383Z,966.2
2017-09-04T02:03:58.377Z,966.21
2017-09-04T02:04:58.372Z,966.2
2017-09-04T02:05:58.365Z,966.16
2017-09-04T02:06:58.360Z,966.17
2017-09-04T02:07:58.353Z,966.16
2017-09-04T02:08:58.347Z,966.21
2017-09-04T02:09:58.341Z,966.18
2017-09-04T02:10:58.336Z,966.17
2017-09-04T02:11:58.329Z,966.2
2017-09-04T02:12:58.324Z,966.18
2017-09-04T02:13:58.319Z,966.19
2017-09-04T02:14:58.312Z,966.16
2017-09-04T02:15:58.306Z,966.17
2017-09-04T02:16:58.301Z,966.2
2017-09-04T02:17:58.293Z,966.19
2017-09-04T02:18:58.288Z,966.13
2017-09-04T02:19:58.285Z,966.17
2017-09-04T02:20:58.303Z,966.18
2017-09-04T02:21:58.271Z,966.2
2017-09-04T02:22:58.264Z,966.25
2017-09-04T02:23:58.258Z,966.23
2017-09-04T02:24:58.253Z,966.22
2017-09-04T02:25:58.246Z,966.26
2017-09-04T02:26:58.341Z,966.24
2017-09-04T02:27:58.236Z,966.24
2017-09-04T02:28:58.229Z,966.21
2017-09-04T02:29:58.222Z,966.23
2017-09-04T02:30:58.217Z,966.22
2017-09-04T02:31:58.211Z,966.21
2017-09-04T02:32:58.206Z,966.16
2017-09-04T02:33:58.200Z,966.19
2017-09-04T02:34:58.194Z,966.18
2017-09-04T02:35:58.187Z,966.16
2017-09-04T02:36:58.181Z,966.13
2017-09-04T02:37:58.180Z,966.14
2017-09-04T02:38:58.169Z,966.11
2017-09-04T02:39:58.164Z,966.13
2017-09-04T02:40:58.158Z,966.06
2017-09-04T02:41:58.152Z,966.09
2017-09-04T02:42:58.144Z,966.04
2017-09-04T02:43:58.140Z,966.09
2017-09-04T02:44:58.139Z,966.08
2017-09-04T02:45:58.128Z,966.07
2017-09-04T02:46:58.121Z,966.08
2017-09-04T02:47:58.115Z,966.05
2017-09-04T02:48:58.109Z,966.05
2017-09-04T02:49:58.105Z,966.06
2017-09-04T02:50:58.098Z,966.04
2017-09-04T02:51:58.091Z,966.11
2017-09-04T02:52:58.186Z,966.08
2017-09-04T02:53:58.080Z,966.04
2017-09-04T02:54:58.075Z,966.07
2017-09-04T02:55:58.101Z,966.07
2017-09-04T02:56:58.061Z,966.12
2017-09-04T02:57:58.054Z,966.07
2017-09-04T02:58:58.149Z,966.04
2017-09-04T02:59:58.043Z,966.05
2017-09-04T03:00:58.038Z,966.04
2017-09-04T03:01:58.032Z,966.01
2017-09-04T03:02:58.026Z,966.04
2017-09-04T03:03:58.022Z,966.03
2017-09-04T03:04:58.013Z,966.01
2017-09-04T03:05:58.008Z,966.04
2017-09-04T03:06:58.004Z,966
2017-09-04T03:07:58.006Z,966.04
2017-09-04T03:08:57.989Z,966.01
2017-09-04T03:09:57.985Z,965.99
2017-09-04T03:10:58.078Z,965.96
2017-09-04T03:11:57.972Z,965.98
2017-09-04T03:12:57.967Z,965.99
2017-09-04T03:13:57.961Z,965.96
2017-09-04T03:14:57.955Z,965.96
2017-09-04T03:15:57.949Z,965.96
2017-09-04T03:16:57.941Z,965.98
2017-09-04T03:17:57.936Z,965.95
2017-09-04T03:18:57.930Z,965.9
2017-09-04T03:19:57.923Z,965.94
2017-09-04T03:20:57.917Z,965.92
2017-09-04T03:21:57.913Z,965.97
2017-09-04T03:22:57.906Z,966.01
2017-09-04T03:23:57.900Z,966.04
2017-09-04T03:24:57.893Z,966.04
2017-09-04T03:25:57.888Z,966.04
2017-09-04T03:26:57.880Z,966
2017-09-04T03:27:57.876Z,966.03
2017-09-04T03:28:57.870Z,966.07
2017-09-04T03:29:57.864Z,966.05
2017-09-04T03:30:57.859Z,966.04
2017-09-04T03:31:57.956Z,966.07
2017-09-04T03:32:57.847Z,966.08
2017-09-04T03:33:57.837Z,966.07
2017-09-04T03:34:57.833Z,966.11
2017-09-04T03:35:57.826Z,966.07
2017-09-04T03:36:57.822Z,966.09
2017-09-04T03:37:57.814Z,966.11
2017-09-04T03:38:57.811Z,966.07
2017-09-04T03:39:57.802Z,966.08
2017-09-04T03:40:57.798Z,966.06
2017-09-04T03:41:57.789Z,966.04
2017-09-04T03:42:57.784Z,966.07
2017-09-04T03:43:57.778Z,966.07
2017-09-04T03:44:57.771Z,966.06
2017-09-04T03:45:57.766Z,966.08
2017-09-04T03:46:57.761Z,966.08
2017-09-04T03:47:57.754Z,966.1
2017-09-04T03:48:57.748Z,966.06
2017-09-04T03:49:57.742Z,966.09
2017-09-04T03:50:57.736Z,966.06
2017-09-04T03:51:57.730Z,966.1
2017-09-04T03:52:57.724Z,966.06
2017-09-04T03:53:57.717Z,966.11
2017-09-04T03:54:57.712Z,966.09
2017-09-04T03:55:57.705Z,966.06
2017-09-04T03:56:57.699Z,966.11
2017-09-04T03:57:57.692Z,966.13
2017-09-04T03:58:57.687Z,966.15
2017-09-04T03:59:57.784Z,966.16
2017-09-04T04:00:57.675Z,966.19
2017-09-04T04:01:57.668Z,966.21
2017-09-04T04:02:57.663Z,966.18
2017-09-04T04:03:57.655Z,966.22
2017-09-04T04:04:57.651Z,966.22
2017-09-04T04:05:57.648Z,966.23
2017-09-04T04:06:57.638Z,966.22
2017-09-04T04:07:57.632Z,966.24
2017-09-04T04:08:57.625Z,966.24
2017-09-04T04:09:57.620Z,966.3
2017-09-04T04:10:57.612Z,966.31
2017-09-04T04:11:57.606Z,966.29
2017-09-04T04:12:57.602Z,966.32
2017-09-04T04:13:57.595Z,966.31
2017-09-04T04:14:57.589Z,966.3
2017-09-04T04:15:57.581Z,966.3
2017-09-04T04:16:57.577Z,966.31
2017-09-04T04:17:57.570Z,966.33
2017-09-04T04:18:57.564Z,966.32
2017-09-04T04:19:57.558Z,966.31
2017-09-04T04:20:57.652Z,966.36
2017-09-04T04:21:57.544Z,966.34
2017-09-04T04:22:57.540Z,966.31
2017-09-04T04:23:57.565Z,966.3
2017-09-04T04:24:57.528Z,966.29
2017-09-04T04:25:57.521Z,966.29
2017-09-04T04:26:57.513Z,966.32
2017-09-04T04:27:57.509Z,966.36
2017-09-04T04:28:57.505Z,966.34
2017-09-04T04:29:57.498Z,966.36
2017-09-04T04:30:57.490Z,966.36
2017-09-04T04:31:57.484Z,966.37
2017-09-04T04:32:57.478Z,966.41
2017-09-04T04:33:57.472Z,966.39
2017-09-04T04:34:57.466Z,966.39
2017-09-04T04:35:57.460Z,966.42
2017-09-04T04:36:57.455Z,966.42
2017-09-04T04:37:57.449Z,966.39
2017-09-04T04:38:57.440Z,966.39
2017-09-04T04:39:57.434Z,966.38
2017-09-04T04:40:57.428Z,966.39
2017-09-04T04:41:57.422Z,966.41
2017-09-04T04:42:57.417Z,966.43
2017-09-04T04:43:57.409Z,966.45
2017-09-04T04:44:57.404Z,966.44
2017-09-04T04:45:57.497Z,966.4
2017-09-04T04:46:57.391Z,966.41
2017-09-04T04:47:57.385Z,966.43
2017-09-04T04:48:57.380Z,966.47
2017-09-04T04:49:57.373Z,966.47
2017-09-04T04:50:57.367Z,966.46
2017-09-04T04:51:57.361Z,966.42
2017-09-04T04:52:57.354Z,966.5
2017-09-04T04:53:57.348Z,966.49
2017-09-04T04:54:57.342Z,966.5
2017-09-04T04:55:57.335Z,966.5
2017-09-04T04:56:57.329Z,966.46
2017-09-04T04:57:57.322Z,966.48
2017-09-04T04:58:57.317Z,966.52
2017-09-04T04:59:57.311Z,966.5
2017-09-04T05:00:57.305Z,966.51
2017-09-04T05:01:57.398Z,966.51
2017-09-04T05:02:57.293Z,966.48
2017-09-04T05:03:57.287Z,966.47
2017-09-04T05:04:57.279Z,966.48
2017-09-04T05:05:57.273Z,966.49
2017-09-04T05:06:57.268Z,966.55
2017-09-04T05:07:57.264Z,966.54
2017-09-04T05:08:57.254Z,966.53
2017-09-04T05:09:57.249Z,966.57
2017-09-04T05:10:57.243Z,966.58
2017-09-04T05:11:57.337Z,966.62
2017-09-04T05:12:57.229Z,966.61
2017-09-04T05:13:57.224Z,966.61
2017-09-04T05:14:57.217Z,966.67
2017-09-04T05:15:57.212Z,966.67
2017-09-04T05:16:57.206Z,966.64
2017-09-04T05:17:57.199Z,966.65
2017-09-04T05:18:57.193Z,966.65
2017-09-04T05:19:57.186Z,966.67
2017-09-04T05:20:57.181Z,966.65
2017-09-04T05:21:57.174Z,966.65
2017-09-04T05:22:57.168Z,966.66
2017-09-04T05:23:57.161Z,966.68
2017-09-04T05:24:57.155Z,966.67
2017-09-04T05:25:57.149Z,966.65
2017-09-04T05:26:57.145Z,966.69
2017-09-04T05:27:57.138Z,966.72
2017-09-04T05:28:57.132Z,966.76
2017-09-04T05:29:57.125Z,966.74
2017-09-04T05:30:57.118Z,966.73
2017-09-04T05:31:57.111Z,966.75
2017-09-04T05:32:57.105Z,966.78
2017-09-04T05:33:57.100Z,966.78
2017-09-04T05:34:57.094Z,966.8
2017-09-04T05:35:57.086Z,966.79
2017-09-04T05:36:57.082Z,966.78
2017-09-04T05:37:57.076Z,966.78
2017-09-04T05:38:57.068Z,966.76
2017-09-04T05:39:57.197Z,966.79
2017-09-04T05:40:57.057Z,966.78
2017-09-04T05:41:57.051Z,966.79
2017-09-04T05:42:57.043Z,966.8
2017-09-04T05:43:57.038Z,966.78
2017-09-04T05:44:57.032Z,966.76
2017-09-04T05:45:57.127Z,966.76
2017-09-04T05:46:57.019Z,966.82
2017-09-04T05:47:57.013Z,966.81
2017-09-04T05:48:57.006Z,966.83
2017-09-04T05:49:57.000Z,966.84
2017-09-04T05:50:56.994Z,966.83
2017-09-04T05:51:56.987Z,966.9
2017-09-04T05:52:56.980Z,966.91
2017-09-04T05:53:56.975Z,966.92
2017-09-04T05:54:56.968Z,966.92
2017-09-04T05:55:56.964Z,966.93
2017-09-04T05:56:56.958Z,966.91
2017-09-04T05:57:56.951Z,966.9
2017-09-04T05:58:56.944Z,966.93
2017-09-04T05:59:56.938Z,966.94
2017-09-04T06:00:56.931Z,966.91
2017-09-04T06:01:56.925Z,966.9
2017-09-04T06:02:56.921Z,966.94
2017-09-04T06:03:56.912Z,966.89
2017-09-04T06:04:56.907Z,966.93
2017-09-04T06:05:56.901Z,966.94
2017-09-04T06:06:56.895Z,966.92
2017-09-04T06:07:56.928Z,966.94
2017-09-04T06:08:56.881Z,966.95
2017-09-04T06:09:56.876Z,966.96
2017-09-04T06:10:56.870Z,966.95
2017-09-04T06:11:56.865Z,967
2017-09-04T06:12:56.857Z,966.98
2017-09-04T06:13:56.852Z,966.96
2017-09-04T06:14:56.846Z,966.96
2017-09-04T06:15:56.840Z,967.02
2017-09-04T06:16:56.934Z,967.03
2017-09-04T06:17:56.827Z,967.05
2017-09-04T06:18:56.822Z,967.05
2017-09-04T06:19:56.814Z,967.07
2017-09-04T06:20:56.810Z,967.1
2017-09-04T06:21:56.801Z,967.09
2017-09-04T06:22:56.795Z,967.08
2017-09-04T06:23:56.790Z,967.09
2017-09-04T06:24:56.785Z,967.08
2017-09-04T06:25:56.777Z,967.11
2017-09-04T06:26:56.771Z,967.14
2017-09-04T06:27:56.765Z,967.13
2017-09-04T06:28:56.759Z,967.13
2017-09-04T06:29:56.752Z,967.15
2017-09-04T06:30:56.747Z,967.14
2017-09-04T06:31:56.741Z,967.12
2017-09-04T06:32:56.733Z,967.2
2017-09-04T06:33:56.727Z,967.15
2017-09-04T06:34:56.722Z,967.17
2017-09-04T06:35:56.717Z,967.22
2017-09-04T06:36:56.709Z,967.18
2017-09-04T06:37:56.703Z,967.2
2017-09-04T06:38:56.697Z,967.22
2017-09-04T06:39:56.692Z,967.18
2017-09-04T06:40:56.684Z,967.19
2017-09-04T06:41:56.678Z,967.19
2017-09-04T06:42:56.672Z,967.17
2017-09-04T06:43:56.665Z,967.15
2017-09-04T06:44:56.662Z,967.19
2017-09-04T06:45:56.654Z,967.14
2017-09-04T06:46:56.649Z,967.19
2017-09-04T06:47:56.641Z,967.19
2017-09-04T06:48:56.635Z,967.16
2017-09-04T06:49:56.629Z,967.17
2017-09-04T06:50:56.624Z,967.18
2017-09-04T06:51:56.617Z,967.2
2017-09-04T06:52:56.611Z,967.2
2017-09-04T06:53:56.605Z,967.18
2017-09-04T06:54:56.604Z,967.19
2017-09-04T06:55:56.592Z,967.19
2017-09-04T06:56:56.586Z,967.27
2017-09-04T06:57:56.580Z,967.25
2017-09-04T06:58:56.574Z,967.29
2017-09-04T06:59:56.568Z,967.29
2017-09-04T07:00:56.560Z,967.33
2017-09-04T07:01:56.556Z,967.33
2017-09-04T07:02:56.549Z,967.33
2017-09-04T07:03:56.543Z,967.38
2017-09-04T07:04:56.542Z,967.42
2017-09-04T07:05:56.529Z,967.39
2017-09-04T07:06:56.525Z,967.43
2017-09-04T07:07:56.519Z,967.44
2017-09-04T07:08:56.512Z,967.45
2017-09-04T07:09:56.507Z,967.43
2017-09-04T07:10:56.499Z,967.45
2017-09-04T07:11:56.494Z,967.44
2017-09-04T07:12:56.488Z,967.53
2017-09-04T07:13:56.481Z,967.47
2017-09-04T07:14:56.476Z,967.48
2017-09-04T07:15:56.470Z,967.47
2017-09-04T07:16:56.462Z,967.48
2017-09-04T07:17:56.457Z,967.49
2017-09-04T07:18:56.452Z,967.51
2017-09-04T07:19:56.445Z,967.52
2017-09-04T07:20:56.438Z,967.51
2017-09-04T07:21:56.432Z,967.52
2017-09-04T07:22:56.426Z,967.54
2017-09-04T07:23:56.421Z,967.54
2017-09-04T07:24:56.413Z,967.54
2017-09-04T07:25:56.407Z,967.53
2017-09-04T07:26:56.403Z,967.56
2017-09-04T07:27:56.396Z,967.59
2017-09-04T07:28:56.390Z,967.62
2017-09-04T07:29:56.384Z,967.62
2017-09-04T07:30:56.377Z,967.65
2017-09-04T07:31:56.370Z,967.66
2017-09-04T07:32:56.364Z,967.63
2017-09-04T07:33:56.360Z,967.68
2017-09-04T07:34:56.353Z,967.68
2017-09-04T07:35:56.346Z,967.68
2017-09-04T07:36:56.341Z,967.65
2017-09-04T07:37:56.335Z,967.67
2017-09-04T07:38:56.328Z,967.68
2017-09-04T07:39:56.322Z,967.72
2017-09-04T07:40:56.316Z,967.69
2017-09-04T07:41:56.312Z,967.68
2017-09-04T07:42:56.306Z,967.67
2017-09-04T07:43:56.299Z,967.68
2017-09-04T07:44:56.291Z,967.72
2017-09-04T07:45:56.287Z,967.71
2017-09-04T07:46:56.281Z,967.71
2017-09-04T07:47:56.275Z,967.72
2017-09-04T07:48:56.269Z,967.7
2017-09-04T07:49:56.262Z,967.75
2017-09-04T07:50:56.256Z,967.77
2017-09-04T07:51:56.251Z,967.7
2017-09-04T07:52:56.245Z,967.73
2017-09-04T07:53:56.239Z,967.72
2017-09-04T07:54:56.234Z,967.73
2017-09-04T07:55:56.226Z,967.74
2017-09-04T07:56:56.220Z,967.76
2017-09-04T07:57:56.214Z,967.8
2017-09-04T07:58:56.209Z,967.79
2017-09-04T07:59:56.302Z,967.75
2017-09-04T08:00:56.196Z,967.78
2017-09-04T08:01:56.190Z,967.75
2017-09-04T08:02:56.184Z,967.77
2017-09-04T08:03:56.177Z,967.76
2017-09-04T08:04:56.172Z,967.81
2017-09-04T08:05:56.166Z,967.78
2017-09-04T08:06:56.160Z,967.78
2017-09-04T08:07:56.154Z,967.78
2017-09-04T08:08:56.147Z,967.78
2017-09-04T08:09:56.142Z,967.77
2017-09-04T08:10:56.136Z,967.77
2017-09-04T08:11:56.128Z,967.81
2017-09-04T08:12:56.122Z,967.75
2017-09-04T08:13:56.118Z,967.69
2017-09-04T08:14:56.111Z,967.76
2017-09-04T08:15:56.104Z,967.75
2017-09-04T08:16:56.099Z,967.75
2017-09-04T08:17:56.093Z,967.76
2017-09-04T08:18:56.087Z,967.75
2017-09-04T08:19:56.080Z,967.76
2017-09-04T08:20:56.074Z,967.75
2017-09-04T08:21:56.068Z,967.74
2017-09-04T08:22:56.061Z,967.77
2017-09-04T08:23:56.057Z,967.76
2017-09-04T08:24:56.049Z,967.73
2017-09-04T08:25:56.045Z,967.72
2017-09-04T08:26:56.037Z,967.72
2017-09-04T08:27:56.031Z,967.71
2017-09-04T08:28:56.027Z,967.69
2017-09-04T08:29:56.019Z,967.68
2017-09-04T08:30:56.013Z,967.74
2017-09-04T08:31:56.007Z,967.71
2017-09-04T08:32:56.003Z,967.7
2017-09-04T08:33:55.999Z,967.73
2017-09-04T08:34:55.990Z,967.76
2017-09-04T08:35:55.984Z,967.78
2017-09-04T08:36:55.978Z,967.81
2017-09-04T08:37:55.971Z,967.77
2017-09-04T08:38:55.966Z,967.83
2017-09-04T08:39:55.961Z,967.81
2017-09-04T08:40:55.952Z,967.83
2017-09-04T08:41:55.948Z,967.82
2017-09-04T08:42:55.941Z,967.81
2017-09-04T08:43:55.935Z,967.82
2017-09-04T08:44:55.930Z,967.81
2017-09-04T08:45:55.924Z,967.85
2017-09-04T08:46:55.917Z,967.86
2017-09-04T08:47:55.911Z,967.84
2017-09-04T08:48:55.911Z,967.92
2017-09-04T08:49:55.900Z,967.92
2017-09-04T08:50:55.895Z,967.9
2017-09-04T08:51:55.888Z,967.95
2017-09-04T08:52:55.882Z,967.97
2017-09-04T08:53:55.875Z,968.01
2017-09-04T08:54:55.874Z,968.01
2017-09-04T08:55:55.863Z,967.99
2017-09-04T08:56:55.858Z,968.05
2017-09-04T08:57:55.853Z,968.04
2017-09-04T08:58:55.847Z,968.06
2017-09-04T08:59:55.840Z,968.08
2017-09-04T09:00:55.833Z,968.11
2017-09-04T09:01:55.828Z,968.1
2017-09-04T09:02:55.822Z,968.12
2017-09-04T09:03:55.816Z,968.13
2017-09-04T09:04:55.810Z,968.11
2017-09-04T09:05:55.805Z,968.08
2017-09-04T09:06:55.798Z,968.06
2017-09-04T09:07:55.792Z,968.05
2017-09-04T09:08:55.888Z,968.07
2017-09-04T09:09:55.780Z,968.04
2017-09-04T09:10:55.774Z,968.03
2017-09-04T09:11:55.870Z,968.04
2017-09-04T09:12:55.764Z,968.01
2017-09-04T09:13:55.758Z,968
2017-09-04T09:14:55.751Z,967.98
2017-09-04T09:15:55.846Z,967.97
2017-09-04T09:16:55.741Z,967.98
2017-09-04T09:17:55.733Z,967.99
2017-09-04T09:18:55.727Z,968.01
2017-09-04T09:19:55.722Z,968.04
2017-09-04T09:20:55.717Z,968.01
2017-09-04T09:21:55.712Z,968.03
2017-09-04T09:22:55.706Z,968.01
2017-09-04T09:23:55.700Z,968.01
2017-09-04T09:24:55.693Z,968.02
2017-09-04T09:25:55.688Z,968.03
2017-09-04T09:26:55.681Z,968.01
2017-09-04T09:27:55.675Z,968.03
2017-09-04T09:28:55.670Z,968.04
2017-09-04T09:29:55.665Z,968.03
2017-09-04T09:30:55.659Z,968.1
2017-09-04T09:31:55.652Z,968.1
2017-09-04T09:32:55.646Z,968.12
2017-09-04T09:33:55.640Z,968.16
2017-09-04T09:34:55.636Z,968.13
2017-09-04T09:35:55.628Z,968.12
2017-09-04T09:36:55.723Z,968.16
2017-09-04T09:37:55.616Z,968.22
2017-09-04T09:38:55.611Z,968.26
2017-09-04T09:39:55.606Z,968.29
2017-09-04T09:40:55.599Z,968.3
2017-09-04T09:41:55.593Z,968.32
2017-09-04T09:42:55.587Z,968.32
2017-09-04T09:43:55.581Z,968.28
2017-09-04T09:44:55.576Z,968.31
2017-09-04T09:45:55.570Z,968.34
2017-09-04T09:46:55.563Z,968.34
2017-09-04T09:47:55.558Z,968.33
2017-09-04T09:48:55.553Z,968.33
2017-09-04T09:49:55.547Z,968.39
2017-09-04T09:50:55.540Z,968.41
2017-09-04T09:51:55.536Z,968.36
2017-09-04T09:52:55.529Z,968.39
2017-09-04T09:53:55.524Z,968.33
2017-09-04T09:54:55.517Z,968.36
2017-09-04T09:55:55.512Z,968.36
2017-09-04T09:56:55.506Z,968.38
2017-09-04T09:57:55.501Z,968.36
2017-09-04T09:58:55.494Z,968.39
2017-09-04T09:59:55.488Z,968.37
2017-09-04T10:00:55.483Z,968.4
2017-09-04T10:01:55.477Z,968.41
2017-09-04T10:02:55.470Z,968.42
2017-09-04T10:03:55.469Z,968.42
2017-09-04T10:04:55.460Z,968.45
2017-09-04T10:05:55.454Z,968.4
2017-09-04T10:06:55.448Z,968.38
2017-09-04T10:07:55.441Z,968.37
2017-09-04T10:08:55.436Z,968.35
2017-09-04T10:09:55.430Z,968.35
2017-09-04T10:10:55.424Z,968.35
2017-09-04T10:11:55.420Z,968.36
2017-09-04T10:12:55.414Z,968.35
2017-09-04T10:13:55.407Z,968.38
2017-09-04T10:14:55.402Z,968.36
2017-09-04T10:15:55.395Z,968.37
2017-09-04T10:16:55.390Z,968.36
2017-09-04T10:17:55.385Z,968.43
2017-09-04T10:18:55.378Z,968.39
2017-09-04T10:19:55.372Z,968.42
2017-09-04T10:20:55.368Z,968.4
2017-09-04T10:21:55.363Z,968.46
2017-09-04T10:22:55.462Z,968.48
2017-09-04T10:23:55.350Z,968.48
2017-09-04T10:24:55.345Z,968.47
2017-09-04T10:25:55.339Z,968.48
2017-09-04T10:26:55.332Z,968.5
2017-09-04T10:27:55.327Z,968.49
2017-09-04T10:28:55.322Z,968.51
2017-09-04T10:29:55.317Z,968.48
2017-09-04T10:30:55.311Z,968.48
2017-09-04T10:31:55.303Z,968.47
2017-09-04T10:32:55.299Z,968.51
2017-09-04T10:33:55.294Z,968.48
2017-09-04T10:34:55.287Z,968.51
2017-09-04T10:35:55.282Z,968.54
2017-09-04T10:36:55.277Z,968.55
2017-09-04T10:37:55.269Z,968.55
2017-09-04T10:38:55.363Z,968.52
2017-09-04T10:39:55.259Z,968.53
2017-09-04T10:40:55.254Z,968.54
2017-09-04T10:41:55.248Z,968.54
2017-09-04T10:42:55.241Z,968.54
2017-09-04T10:43:55.235Z,968.53
2017-09-04T10:44:55.230Z,968.55
2017-09-04T10:45:55.224Z,968.55
2017-09-04T10:46:55.218Z,968.55
2017-09-04T10:47:55.214Z,968.53
2017-09-04T10:48:55.206Z,968.51
2017-09-04T10:49:55.202Z,968.57
2017-09-04T10:50:55.195Z,968.51
2017-09-04T10:51:55.195Z,968.53
2017-09-04T10:52:55.285Z,968.55
2017-09-04T10:53:55.179Z,968.51
2017-09-04T10:54:55.173Z,968.46
2017-09-04T10:55:55.168Z,968.5
2017-09-04T10:56:55.162Z,968.51
2017-09-04T10:57:55.157Z,968.53
2017-09-04T10:58:55.151Z,968.54
2017-09-04T10:59:55.144Z,968.54
2017-09-04T11:00:55.139Z,968.52
2017-09-04T11:01:55.134Z,968.51
2017-09-04T11:02:55.128Z,968.5
2017-09-04T11:03:55.122Z,968.52
2017-09-04T11:04:55.118Z,968.54
2017-09-04T11:05:55.112Z,968.51
2017-09-04T11:06:55.106Z,968.57
2017-09-04T11:07:55.099Z,968.59
2017-09-04T11:08:55.095Z,968.61
2017-09-04T11:09:55.089Z,968.56
2017-09-04T11:10:55.083Z,968.58
2017-09-04T11:11:55.077Z,968.56
2017-09-04T11:12:55.072Z,968.58
2017-09-04T11:13:55.067Z,968.51
2017-09-04T11:14:55.062Z,968.54
2017-09-04T11:15:55.056Z,968.52
2017-09-04T11:16:55.049Z,968.54
2017-09-04T11:17:55.043Z,968.55
2017-09-04T11:18:55.038Z,968.54
2017-09-04T11:19:55.033Z,968.57
2017-09-04T11:20:55.029Z,968.58
2017-09-04T11:21:55.021Z,968.59
2017-09-04T11:22:55.016Z,968.56
2017-09-04T11:23:55.012Z,968.57
2017-09-04T11:24:55.006Z,968.59
2017-09-04T11:25:55.000Z,968.59
2017-09-04T11:26:54.993Z,968.59
2017-09-04T11:27:54.990Z,968.54
2017-09-04T11:28:54.984Z,968.58
2017-09-04T11:29:54.977Z,968.55
2017-09-04T11:30:54.973Z,968.58
2017-09-04T11:31:54.969Z,968.56
2017-09-04T11:32:54.961Z,968.58
2017-09-04T11:33:55.055Z,968.58
2017-09-04T11:34:55.052Z,968.59
2017-09-04T11:35:54.946Z,968.62
2017-09-04T11:36:54.940Z,968.62
2017-09-04T11:37:54.934Z,968.63
2017-09-04T11:38:54.928Z,968.66
2017-09-04T11:39:55.022Z,968.63
2017-09-04T11:40:54.917Z,968.59
2017-09-04T11:41:54.914Z,968.6
2017-09-04T11:42:54.907Z,968.59
2017-09-04T11:43:54.901Z,968.61
2017-09-04T11:44:54.895Z,968.65
2017-09-04T11:45:54.891Z,968.64
2017-09-04T11:46:54.887Z,968.64
2017-09-04T11:47:54.880Z,968.67
2017-09-04T11:48:54.875Z,968.64
2017-09-04T11:49:54.869Z,968.65
2017-09-04T11:50:54.863Z,968.65
2017-09-04T11:51:54.858Z,968.63
2017-09-04T11:52:54.854Z,968.6
2017-09-04T11:53:54.847Z,968.61
2017-09-04T11:54:54.841Z,968.56
2017-09-04T11:55:54.836Z,968.59
2017-09-04T11:56:54.832Z,968.62
2017-09-04T11:57:54.826Z,968.62
2017-09-04T11:58:54.820Z,968.61
2017-09-04T11:59:54.816Z,968.62
2017-09-04T12:00:54.810Z,968.61
2017-09-04T12:01:54.805Z,968.61
2017-09-04T12:02:54.798Z,968.64
2017-09-04T12:03:54.793Z,968.65
2017-09-04T12:04:54.790Z,968.63
2017-09-04T12:05:54.784Z,968.59
2017-09-04T12:06:54.777Z,968.6
2017-09-04T12:07:54.772Z,968.59
2017-09-04T12:08:54.768Z,968.59
2017-09-04T12:09:54.764Z,968.55
2017-09-04T12:10:54.758Z,968.53
2017-09-04T12:11:54.751Z,968.54
2017-09-04T12:12:54.745Z,968.54
2017-09-04T12:13:54.740Z,968.52
2017-09-04T12:14:54.735Z,968.56
2017-09-04T12:15:54.731Z,968.5
2017-09-04T12:16:54.725Z,968.51
2017-09-04T12:17:54.721Z,968.44
2017-09-04T12:18:54.715Z,968.51
2017-09-04T12:19:54.710Z,968.51
2017-09-04T12:20:54.704Z,968.52
2017-09-04T12:21:54.798Z,968.47
2017-09-04T12:22:54.694Z,968.47
2017-09-04T12:23:54.688Z,968.49
2017-09-04T12:24:54.682Z,968.49
2017-09-04T12:25:54.678Z,968.47
2017-09-04T12:26:54.672Z,968.5
2017-09-04T12:27:54.667Z,968.46
2017-09-04T12:28:54.662Z,968.48
2017-09-04T12:29:54.657Z,968.5
2017-09-04T12:30:54.658Z,968.49